Time;durP1;ratioP1;P1;durP2;ratioP2;P2;SDS_P1;SDS_P2;PMS_P1;PMS_P2;Temp;Humidity;BMP_temperature;BMP_pressure;BME280_temperature;BME280_humidity;BME280_pressure;Samples;Min_cycle;Max_cycle;Signal;HPM_P1;HPM_P2
2022/02/12 00:00:44;;;;;;;;;;;;;;;;;;4965527;28;20525;-68
2022/02/12 00:03:11;;;;;;;;;;;;;;;;;;4972079;28;19925;-68
2022/02/12 00:05:39;;;;;;;;;;;;;;;;;;4954197;28;19918;-69
2022/02/12 00:08:05;;;;;;;;;;;;;;;;;;4942093;28;19926;-68
2022/02/12 00:10:31;;;;;;;;;;;;;;;;;;4960895;28;19972;-68
2022/02/12 00:12:59;;;;;;;;;;;;;;;;;;4936656;28;19918;-69
2022/02/12 00:15:26;;;;;;;;;;;;;;;;;;4953959;28;19917;-69
2022/02/12 00:17:58;;;;;;;;;;;;;;;;;;4952772;28;20020;-70
2022/02/12 00:20:24;;;;;;;;;;;;;;;;;;4940076;28;19914;-69
2022/02/12 00:22:51;;;;;;;;;;;;;;;;;;4936939;28;20032;-68
2022/02/12 00:25:19;;;;;;;;;;;;;;;;;;4953784;28;19921;-68
2022/02/12 00:27:45;;;;;;;;;;;;;;;;;;4949955;28;20001;-68
2022/02/12 00:30:12;;;;;;;;;;;;;;;;;;4955259;28;19917;-70
2022/02/12 00:32:40;;;;;;;;;;;;;;;;;;4953669;28;19913;-68
2022/02/12 00:35:08;;;;;;;;;;;;;;;;;;4937547;28;19925;-68
2022/02/12 00:37:34;;;;;;;;;;;;;;;;;;4960597;28;19924;-68
2022/02/12 00:40:00;;;;;;;;;;;;;;;;;;4933146;28;20004;-68
2022/02/12 00:42:30;;;;;;;;;;;;;;;;;;4953622;28;20413;-69
2022/02/12 00:44:56;;;;;;;;;;;;;;;;;;4952395;28;19917;-68
2022/02/12 00:47:24;;;;;;;;;;;;;;;;;;4953283;28;19910;-69
2022/02/12 00:49:59;;;;;;;;;;;;;;;;;;4951622;28;20715;-68
2022/02/12 00:52:25;;;;;;;;;;;;;;;;;;4959850;28;19997;-68
2022/02/12 00:54:51;;;;;;;;;;;;;;;;;;4949700;28;19950;-68
2022/02/12 00:57:18;;;;;;;;;;;;;;;;;;4961144;28;19997;-68
2022/02/12 00:59:44;;;;;;;;;;;;;;;;;;4934876;28;20352;-68
2022/02/12 01:02:12;;;;;;;;;;;;;;;;;;4939496;28;19940;-68
2022/02/12 01:04:38;;;;;;;;;;;;;;;;;;4958334;28;19921;-68
2022/02/12 01:07:05;;;;;;;;;;;;;;;;;;4950556;28;19976;-68
2022/02/12 01:09:31;;;;;;;;;;;;;;;;;;4937453;28;19918;-69
2022/02/12 01:11:58;;;;;;;;;;;;;;;;;;4958059;28;19921;-69
2022/02/12 01:14:24;;;;;;;;;;;;;;;;;;4952288;28;19943;-68
2022/02/12 01:16:52;;;;;;;;;;;;;;;;;;4957487;28;19992;-68
2022/02/12 01:19:18;;;;;;;;;;;;;;;;;;4951075;28;20005;-69
2022/02/12 01:21:44;;;;;;;;;;;;;;;;;;4949074;28;20013;-69
2022/02/12 01:24:12;;;;;;;;;;;;;;;;;;4950449;28;19922;-69
2022/02/12 01:26:40;;;;;;;;;;;;;;;;;;4951883;28;20292;-69
2022/02/12 01:29:06;;;;;;;;;;;;;;;;;;4957094;28;19914;-69
2022/02/12 01:31:32;;;;;;;;;;;;;;;;;;4953333;28;19929;-68
2022/02/12 01:33:58;;;;;;;;;;;;;;;;;;4949418;28;19914;-69
2022/02/12 01:36:25;;;;;;;;;;;;;;;;;;4955642;28;19924;-69
2022/02/12 01:38:54;;;;;;;;;;;;;;;;;;4950219;28;19957;-68
2022/02/12 01:41:20;;;;;;;;;;;;;;;;;;4957259;28;19918;-68
2022/02/12 01:43:46;;;;;;;;;;;;;;;;;;4950221;28;19917;-69
2022/02/12 01:46:13;;;;;;;;;;;;;;;;;;4951976;28;19920;-69
2022/02/12 01:48:43;;;;;;;;;;;;;;;;;;4951931;28;19941;-68
2022/02/12 01:51:09;;;;;;;;;;;;;;;;;;4955577;28;21082;-69
2022/02/12 01:53:35;;;;;;;;;;;;;;;;;;4956231;28;19918;-69
2022/02/12 01:56:01;;;;;;;;;;;;;;;;;;4935365;28;19945;-69
2022/02/12 01:58:27;;;;;;;;;;;;;;;;;;4957970;28;19928;-69
2022/02/12 02:00:55;;;;;;;;;;;;;;;;;;4939651;28;19918;-69
2022/02/12 02:03:21;;;;;;;;;;;;;;;;;;4955929;28;19923;-69
2022/02/12 02:05:49;;;;;;;;;;;;;;;;;;4951708;28;19913;-68
2022/02/12 02:08:15;;;;;;;;;;;;;;;;;;4954754;28;19928;-68
2022/02/12 02:10:43;;;;;;;;;;;;;;;;;;4938016;28;19926;-69
2022/02/12 02:13:11;;;;;;;;;;;;;;;;;;4954091;28;20008;-68
2022/02/12 02:15:38;;;;;;;;;;;;;;;;;;4956793;28;19929;-69
2022/02/12 02:18:06;;;;;;;;;;;;;;;;;;4958082;28;19980;-68
2022/02/12 02:20:34;;;;;;;;;;;;;;;;;;4954758;28;19950;-68
2022/02/12 02:23:01;;;;;;;;;;;;;;;;;;4952257;28;19918;-68
2022/02/12 02:25:27;;;;;;;;;;;;;;;;;;4953718;28;19942;-68
2022/02/12 02:27:54;;;;;;;;;;;;;;;;;;4933813;28;19914;-68
2022/02/12 02:30:19;;;;;;;;;;;;;;;;;;4942297;28;19960;-68
2022/02/12 02:32:45;;;;;;;;;;;;;;;;;;4947626;28;19997;-68
2022/02/12 02:35:15;;;;;;;;;;;;;;;;;;4953794;28;19913;-69
2022/02/12 02:37:43;;;;;;;;;;;;;;;;;;4951732;28;19949;-69
2022/02/12 02:40:11;;;;;;;;;;;;;;;;;;4949954;28;19914;-69
2022/02/12 02:42:38;;;;;;;;;;;;;;;;;;4956128;28;19925;-69
2022/02/12 02:45:04;;;;;;;;;;;;;;;;;;4934443;28;19957;-69
2022/02/12 02:47:40;;;;;;;;;;;;;;;;;;4951538;28;19954;-70
2022/02/12 02:55:59;;;;;;;;;;;;;;;;;;4960322;28;19920;-69
2022/02/12 02:58:25;;;;;;;;;;;;;;;;;;4952054;28;20467;-69
2022/02/12 03:00:52;;;;;;;;;;;;;;;;;;4953309;28;19971;-69
2022/02/12 03:03:18;;;;;;;;;;;;;;;;;;4934455;28;20536;-69
2022/02/12 03:05:44;;;;;;;;;;;;;;;;;;4951287;28;19922;-70
2022/02/12 03:08:11;;;;;;;;;;;;;;;;;;4955589;28;19960;-69
2022/02/12 03:10:40;;;;;;;;;;;;;;;;;;4954806;28;20392;-69
2022/02/12 03:13:06;;;;;;;;;;;;;;;;;;4960081;28;19944;-67
2022/02/12 03:15:33;;;;;;;;;;;;;;;;;;4973559;28;19944;-71
2022/02/12 03:17:59;;;;;;;;;;;;;;;;;;4973973;28;19925;-68
2022/02/12 03:20:26;;;;;;;;;;;;;;;;;;4970072;28;19914;-68
2022/02/12 03:22:55;;;;;;;;;;;;;;;;;;4968113;28;19918;-68
2022/02/12 03:25:21;;;;;;;;;;;;;;;;;;4971480;28;19972;-68
2022/02/12 03:27:47;;;;;;;;;;;;;;;;;;4951180;28;19910;-68
2022/02/12 03:30:15;;;;;;;;;;;;;;;;;;4969487;28;19924;-68
2022/02/12 03:32:42;;;;;;;;;;;;;;;;;;4953912;28;19913;-68
2022/02/12 03:35:11;;;;;;;;;;;;;;;;;;4971882;28;19913;-71
2022/02/12 03:37:39;;;;;;;;;;;;;;;;;;4977117;28;20328;-68
2022/02/12 03:40:06;;;;;;;;;;;;;;;;;;4965057;28;19925;-68
2022/02/12 03:42:34;;;;;;;;;;;;;;;;;;4970017;28;20020;-68
2022/02/12 03:45:01;;;;;;;;;;;;;;;;;;4965558;28;20635;-68
2022/02/12 03:47:28;;;;;;;;;;;;;;;;;;4953288;28;19941;-69
2022/02/12 03:49:55;;;;;;;;;;;;;;;;;;4949656;28;20687;-69
2022/02/12 03:52:22;;;;;;;;;;;;;;;;;;4971246;28;19921;-69
2022/02/12 03:54:49;;;;;;;;;;;;;;;;;;4970308;28;19913;-69
2022/02/12 03:57:16;;;;;;;;;;;;;;;;;;4970497;28;20550;-69
2022/02/12 03:59:42;;;;;;;;;;;;;;;;;;4965453;28;19921;-69
2022/02/12 04:02:08;;;;;;;;;;;;;;;;;;4970164;28;19925;-69
2022/02/12 04:04:35;;;;;;;;;;;;;;;;;;4970987;28;20292;-69
2022/02/12 04:07:03;;;;;;;;;;;;;;;;;;4948272;28;20031;-69
2022/02/12 04:09:31;;;;;;;;;;;;;;;;;;4970698;28;19914;-69
2022/02/12 04:11:57;;;;;;;;;;;;;;;;;;4948768;28;19948;-68
2022/02/12 04:14:24;;;;;;;;;;;;;;;;;;4953559;28;19933;-68
2022/02/12 04:16:51;;;;;;;;;;;;;;;;;;4928873;28;20613;-68
2022/02/12 04:19:19;;;;;;;;;;;;;;;;;;4943999;28;19914;-68
2022/02/12 04:21:46;;;;;;;;;;;;;;;;;;4941199;28;19921;-69
2022/02/12 04:24:12;;;;;;;;;;;;;;;;;;4951109;28;19917;-68
2022/02/12 04:26:38;;;;;;;;;;;;;;;;;;4941587;28;19946;-68
2022/02/12 04:29:04;;;;;;;;;;;;;;;;;;4944427;28;19918;-69
2022/02/12 04:31:31;;;;;;;;;;;;;;;;;;4947452;28;19976;-69
2022/02/12 04:33:57;;;;;;;;;;;;;;;;;;4939342;28;19957;-68
2022/02/12 04:36:25;;;;;;;;;;;;;;;;;;4945825;28;20319;-69
2022/02/12 04:38:52;;;;;;;;;;;;;;;;;;4939657;28;19948;-69
2022/02/12 04:41:19;;;;;;;;;;;;;;;;;;4944385;28;19950;-68
2022/02/12 04:43:46;;;;;;;;;;;;;;;;;;4938570;28;19914;-69
2022/02/12 04:46:12;;;;;;;;;;;;;;;;;;4943027;28;19945;-69
2022/02/12 04:48:41;;;;;;;;;;;;;;;;;;4947067;28;19918;-68
2022/02/12 04:51:11;;;;;;;;;;;;;;;;;;4948817;28;19968;-69
2022/02/12 04:53:39;;;;;;;;;;;;;;;;;;4948275;28;19914;-69
2022/02/12 04:56:06;;;;;;;;;;;;;;;;;;4944813;28;19914;-68
2022/02/12 04:58:33;;;;;;;;;;;;;;;;;;4944533;28;20443;-69
2022/02/12 05:01:01;;;;;;;;;;;;;;;;;;4926885;28;19918;-70
2022/02/12 05:03:28;;;;;;;;;;;;;;;;;;4931445;28;20058;-69
2022/02/12 05:05:54;;;;;;;;;;;;;;;;;;4942609;28;19918;-69
2022/02/12 05:08:20;;;;;;;;;;;;;;;;;;4932728;28;19940;-68
2022/02/12 05:10:49;;;;;;;;;;;;;;;;;;4946032;28;19915;-69
2022/02/12 05:13:16;;;;;;;;;;;;;;;;;;4954908;28;19925;-69
2022/02/12 05:15:42;;;;;;;;;;;;;;;;;;4970103;28;19918;-68
2022/02/12 05:18:10;;;;;;;;;;;;;;;;;;4970335;28;19917;-68
2022/02/12 05:20:37;;;;;;;;;;;;;;;;;;4968348;28;19948;-68
2022/02/12 05:23:03;;;;;;;;;;;;;;;;;;4956651;28;19932;-68
2022/02/12 05:25:31;;;;;;;;;;;;;;;;;;4956291;28;20784;-68
2022/02/12 05:27:58;;;;;;;;;;;;;;;;;;4950814;28;20141;-68
2022/02/12 05:30:25;;;;;;;;;;;;;;;;;;4955900;28;19913;-68
2022/02/12 05:32:51;;;;;;;;;;;;;;;;;;4946916;28;19922;-68
2022/02/12 05:35:17;;;;;;;;;;;;;;;;;;4959509;28;19918;-69
2022/02/12 05:37:43;;;;;;;;;;;;;;;;;;4938462;28;19918;-68
2022/02/12 05:40:09;;;;;;;;;;;;;;;;;;4954542;28;20329;-68
2022/02/12 05:42:36;;;;;;;;;;;;;;;;;;4959094;28;19922;-68
2022/02/12 05:45:02;;;;;;;;;;;;;;;;;;4932493;28;19914;-68
2022/02/12 05:47:29;;;;;;;;;;;;;;;;;;4952430;28;19914;-68
2022/02/12 05:49:55;;;;;;;;;;;;;;;;;;4952414;28;19953;-68
2022/02/12 05:52:21;;;;;;;;;;;;;;;;;;4953245;28;19914;-68
2022/02/12 05:54:47;;;;;;;;;;;;;;;;;;4949758;28;20024;-68
2022/02/12 05:57:14;;;;;;;;;;;;;;;;;;4937189;28;20036;-67
2022/02/12 05:59:40;;;;;;;;;;;;;;;;;;4937682;28;19918;-67
2022/02/12 06:02:06;;;;;;;;;;;;;;;;;;4952525;28;20000;-68
2022/02/12 06:04:33;;;;;;;;;;;;;;;;;;4949441;28;19918;-68
2022/02/12 06:07:00;;;;;;;;;;;;;;;;;;4949108;28;19926;-68
2022/02/12 06:09:27;;;;;;;;;;;;;;;;;;4954865;28;19968;-68
2022/02/12 06:11:55;;;;;;;;;;;;;;;;;;4930526;28;19980;-67
2022/02/12 06:14:22;;;;;;;;;;;;;;;;;;4950831;28;19921;-68
2022/02/12 06:16:49;;;;;;;;;;;;;;;;;;4941734;28;19914;-67
2022/02/12 06:19:16;;;;;;;;;;;;;;;;;;4943976;28;19922;-68
2022/02/12 06:21:42;;;;;;;;;;;;;;;;;;4944205;28;19961;-68
2022/02/12 06:24:08;;;;;;;;;;;;;;;;;;4948638;28;20602;-68
2022/02/12 06:26:38;;;;;;;;;;;;;;;;;;4942788;28;19920;-68
2022/02/12 06:29:06;;;;;;;;;;;;;;;;;;4944450;28;20363;-68
2022/02/12 06:31:33;;;;;;;;;;;;;;;;;;4944667;28;19937;-68
2022/02/12 06:33:59;;;;;;;;;;;;;;;;;;4943174;28;19988;-68
2022/02/12 06:36:26;;;;;;;;;;;;;;;;;;4949865;28;20334;-69
2022/02/12 06:38:54;;;;;;;;;;;;;;;;;;4944936;28;19976;-69
2022/02/12 06:41:21;;;;;;;;;;;;;;;;;;4946454;28;19913;-69
2022/02/12 06:43:48;;;;;;;;;;;;;;;;;;4939597;28;19937;-69
2022/02/12 06:46:15;;;;;;;;;;;;;;;;;;4944022;28;19914;-68
2022/02/12 06:48:42;;;;;;;;;;;;;;;;;;4942638;28;19926;-68
2022/02/12 06:51:08;;;;;;;;;;;;;;;;;;4946676;28;19913;-69
2022/02/12 06:53:36;;;;;;;;;;;;;;;;;;4942488;28;19914;-68
2022/02/12 06:56:02;;;;;;;;;;;;;;;;;;4946856;28;19926;-68
2022/02/12 06:58:28;;;;;;;;;;;;;;;;;;4937164;28;20344;-71
2022/02/12 07:00:55;;;;;;;;;;;;;;;;;;4956829;28;19914;-68
2022/02/12 07:03:22;;;;;;;;;;;;;;;;;;4951479;28;19914;-69
2022/02/12 07:05:49;;;;;;;;;;;;;;;;;;4945218;28;19996;-69
2022/02/12 07:08:16;;;;;;;;;;;;;;;;;;4955948;28;19946;-69
2022/02/12 07:10:43;;;;;;;;;;;;;;;;;;4933107;28;20348;-70
2022/02/12 07:13:12;;;;;;;;;;;;;;;;;;4951722;28;20029;-70
2022/02/12 07:15:39;;;;;;;;;;;;;;;;;;4957947;28;20371;-70
2022/02/12 07:18:06;;;;;;;;;;;;;;;;;;4946850;28;19924;-70
2022/02/12 07:20:33;;;;;;;;;;;;;;;;;;4953896;28;19948;-70
2022/02/12 07:23:01;;;;;;;;;;;;;;;;;;4956214;28;19949;-70
2022/02/12 07:25:31;;;;;;;;;;;;;;;;;;4950270;28;19966;-70
2022/02/12 07:27:59;;;;;;;;;;;;;;;;;;4935309;28;19960;-69
2022/02/12 07:30:26;;;;;;;;;;;;;;;;;;4952688;28;19964;-70
2022/02/12 07:32:52;;;;;;;;;;;;;;;;;;4932459;28;20289;-69
2022/02/12 07:35:18;;;;;;;;;;;;;;;;;;4955304;28;19916;-69
2022/02/12 07:37:45;;;;;;;;;;;;;;;;;;4948221;28;19925;-69
2022/02/12 07:40:12;;;;;;;;;;;;;;;;;;4936035;28;19922;-69
2022/02/12 07:42:38;;;;;;;;;;;;;;;;;;4938941;28;19921;-70
2022/02/12 07:45:06;;;;;;;;;;;;;;;;;;4946692;28;20574;-70
2022/02/12 07:47:33;;;;;;;;;;;;;;;;;;4951788;28;19936;-69
2022/02/12 07:50:00;;;;;;;;;;;;;;;;;;4947501;28;19914;-68
2022/02/12 07:52:27;;;;;;;;;;;;;;;;;;4930543;28;20284;-69
2022/02/12 07:54:54;;;;;;;;;;;;;;;;;;4929076;28;20083;-69
2022/02/12 07:57:22;;;;;;;;;;;;;;;;;;4934153;28;20025;-68
2022/02/12 07:59:49;;;;;;;;;;;;;;;;;;4926492;28;19947;-69
2022/02/12 08:02:16;;;;;;;;;;;;;;;;;;4949577;28;20687;-69
2022/02/12 08:04:43;;;;;;;;;;;;;;;;;;4950871;28;19979;-69
2022/02/12 08:09:55;;;;;;;;;;;;;;;;;;4948844;28;19925;-69
2022/02/12 08:12:22;;;;;;;;;;;;;;;;;;4949068;28;20020;-70
2022/02/12 08:14:50;;;;;;;;;;;;;;;;;;4946076;28;19914;-70
2022/02/12 08:17:16;;;;;;;;;;;;;;;;;;4954717;28;19961;-69
2022/02/12 08:19:43;;;;;;;;;;;;;;;;;;4947617;28;19914;-70
2022/02/12 08:22:13;;;;;;;;;;;;;;;;;;4934693;28;20049;-69
2022/02/12 08:24:40;;;;;;;;;;;;;;;;;;4955938;28;19981;-69
2022/02/12 08:27:09;;;;;;;;;;;;;;;;;;4947645;28;19965;-68
2022/02/12 08:29:37;;;;;;;;;;;;;;;;;;4956718;28;19959;-70
2022/02/12 08:32:03;;;;;;;;;;;;;;;;;;4953366;28;19949;-70
2022/02/12 08:34:29;;;;;;;;;;;;;;;;;;4955670;28;19914;-70
2022/02/12 08:36:55;;;;;;;;;;;;;;;;;;4944850;28;19926;-71
2022/02/12 08:39:23;;;;;;;;;;;;;;;;;;4930954;28;19926;-68
2022/02/12 08:41:51;;;;;;;;;;;;;;;;;;4913260;28;20013;-68
2022/02/12 08:44:18;;;;;;;;;;;;;;;;;;4933315;28;20255;-69
2022/02/12 08:46:45;;;;;;;;;;;;;;;;;;4927880;28;19918;-68
2022/02/12 08:49:12;;;;;;;;;;;;;;;;;;4937424;28;20029;-69
2022/02/12 08:51:39;;;;;;;;;;;;;;;;;;4933696;28;19914;-68
2022/02/12 08:54:06;;;;;;;;;;;;;;;;;;4932092;28;19954;-69
2022/02/12 08:56:35;;;;;;;;;;;;;;;;;;4924528;28;19920;-69
2022/02/12 08:59:02;;;;;;;;;;;;;;;;;;4927146;28;21294;-69
2022/02/12 09:01:29;;;;;;;;;;;;;;;;;;4931742;28;19926;-69
2022/02/12 09:03:56;;;;;;;;;;;;;;;;;;4933558;28;20289;-69
2022/02/12 09:06:22;;;;;;;;;;;;;;;;;;4930632;28;19918;-68
2022/02/12 09:08:51;;;;;;;;;;;;;;;;;;4931610;28;19968;-69
2022/02/12 09:11:18;;;;;;;;;;;;;;;;;;4933735;28;20007;-69
2022/02/12 09:13:45;;;;;;;;;;;;;;;;;;4929418;28;19921;-69
2022/02/12 09:16:11;;;;;;;;;;;;;;;;;;4929046;28;20005;-69
2022/02/12 09:18:37;;;;;;;;;;;;;;;;;;4931718;28;19925;-69
2022/02/12 09:21:04;;;;;;;;;;;;;;;;;;4913026;28;19918;-70
2022/02/12 09:23:31;;;;;;;;;;;;;;;;;;4930883;28;19918;-69
2022/02/12 09:25:58;;;;;;;;;;;;;;;;;;4925292;28;19914;-69
2022/02/12 09:28:24;;;;;;;;;;;;;;;;;;4931220;28;19925;-69
2022/02/12 09:30:50;;;;;;;;;;;;;;;;;;4926616;28;19919;-70
2022/02/12 09:33:16;;;;;;;;;;;;;;;;;;4914713;28;20370;-69
2022/02/12 09:35:44;;;;;;;;;;;;;;;;;;4926686;28;20401;-70
2022/02/12 09:38:11;;;;;;;;;;;;;;;;;;4928268;28;19926;-70
2022/02/12 09:40:37;;;;;;;;;;;;;;;;;;4924541;28;19914;-70
2022/02/12 09:43:03;;;;;;;;;;;;;;;;;;4911437;28;19914;-70
2022/02/12 09:45:29;;;;;;;;;;;;;;;;;;4917111;28;19914;-69
2022/02/12 09:47:56;;;;;;;;;;;;;;;;;;4926904;28;19921;-69
2022/02/12 09:50:22;;;;;;;;;;;;;;;;;;4933813;28;20016;-69
2022/02/12 09:52:49;;;;;;;;;;;;;;;;;;4928488;28;20340;-70
2022/02/12 09:55:15;;;;;;;;;;;;;;;;;;4930260;28;19915;-69
2022/02/12 09:57:41;;;;;;;;;;;;;;;;;;4914104;28;19937;-69
2022/02/12 10:00:14;;;;;;;;;;;;;;;;;;4930226;28;20105;-69
2022/02/12 10:02:40;;;;;;;;;;;;;;;;;;4928511;28;19921;-69
2022/02/12 10:05:07;;;;;;;;;;;;;;;;;;4920071;28;19914;-69
2022/02/12 10:07:33;;;;;;;;;;;;;;;;;;4925588;28;19914;-69
2022/02/12 10:09:59;;;;;;;;;;;;;;;;;;4926049;28;19918;-69
2022/02/12 10:12:26;;;;;;;;;;;;;;;;;;4929291;28;20491;-69
2022/02/12 10:14:54;;;;;;;;;;;;;;;;;;4923913;28;19918;-70
2022/02/12 10:17:24;;;;;;;;;;;;;;;;;;4913875;28;20296;-69
2022/02/12 10:19:51;;;;;;;;;;;;;;;;;;4924295;28;20031;-68
2022/02/12 10:22:21;;;;;;;;;;;;;;;;;;4930001;28;19914;-69
2022/02/12 10:24:48;;;;;;;;;;;;;;;;;;4925187;28;19918;-68
2022/02/12 10:27:15;;;;;;;;;;;;;;;;;;4927714;28;19915;-69
2022/02/12 10:29:42;;;;;;;;;;;;;;;;;;4925850;28;19914;-68
2022/02/12 10:32:09;;;;;;;;;;;;;;;;;;4928419;28;19914;-69
2022/02/12 10:34:36;;;;;;;;;;;;;;;;;;4927846;28;19921;-69
2022/02/12 10:37:04;;;;;;;;;;;;;;;;;;4926466;28;19930;-69
2022/02/12 10:39:31;;;;;;;;;;;;;;;;;;4927062;28;19914;-71
2022/02/12 10:41:58;;;;;;;;;;;;;;;;;;4925670;28;20000;-70
2022/02/12 10:44:26;;;;;;;;;;;;;;;;;;4925039;28;19914;-70
2022/02/12 10:46:54;;;;;;;;;;;;;;;;;;4926409;28;19925;-70
2022/02/12 10:49:21;;;;;;;;;;;;;;;;;;4933417;28;19921;-71
2022/02/12 10:51:47;;;;;;;;;;;;;;;;;;4923424;28;19914;-70
2022/02/12 10:54:17;;;;;;;;;;;;;;;;;;4932869;28;19914;-71
2022/02/12 10:56:46;;;;;;;;;;;;;;;;;;4925860;28;19972;-70
2022/02/12 10:59:12;;;;;;;;;;;;;;;;;;4929307;28;19922;-71
2022/02/12 11:01:40;;;;;;;;;;;;;;;;;;4930869;28;20428;-71
2022/02/12 11:04:07;;;;;;;;;;;;;;;;;;4923241;28;20284;-71
2022/02/12 11:06:33;;;;;;;;;;;;;;;;;;4927097;28;19953;-69
2022/02/12 11:08:59;;;;;;;;;;;;;;;;;;4926906;28;20030;-69
2022/02/12 11:11:26;;;;;;;;;;;;;;;;;;4927731;28;19958;-68
2022/02/12 11:13:58;;;;;;;;;;;;;;;;;;4922471;28;19933;-70
2022/02/12 11:16:25;;;;;;;;;;;;;;;;;;4929143;28;20025;-70
2022/02/12 11:18:52;;;;;;;;;;;;;;;;;;4923507;28;20766;-71
2022/02/12 11:21:18;;;;;;;;;;;;;;;;;;4928616;28;19978;-70
2022/02/12 11:23:45;;;;;;;;;;;;;;;;;;4921759;28;19921;-68
2022/02/12 11:26:12;;;;;;;;;;;;;;;;;;4922177;28;20598;-71
2022/02/12 11:28:41;;;;;;;;;;;;;;;;;;4924490;28;19918;-71
2022/02/12 11:31:07;;;;;;;;;;;;;;;;;;4919166;28;20041;-70
2022/02/12 11:33:34;;;;;;;;;;;;;;;;;;4924534;28;20777;-71
2022/02/12 11:36:00;;;;;;;;;;;;;;;;;;4921833;28;20026;-71
2022/02/12 11:38:26;;;;;;;;;;;;;;;;;;4942548;28;19922;-70
2022/02/12 11:40:52;;;;;;;;;;;;;;;;;;4937091;28;19914;-71
2022/02/12 11:43:18;;;;;;;;;;;;;;;;;;4933274;28;19922;-69
2022/02/12 11:45:47;;;;;;;;;;;;;;;;;;4944180;28;19969;-69
2022/02/12 11:48:14;;;;;;;;;;;;;;;;;;4942696;28;19914;-68
2022/02/12 11:50:40;;;;;;;;;;;;;;;;;;4943699;28;19957;-69
2022/02/12 11:53:07;;;;;;;;;;;;;;;;;;4927104;28;19922;-69
2022/02/12 11:55:35;;;;;;;;;;;;;;;;;;4944915;28;20841;-70
2022/02/12 11:58:04;;;;;;;;;;;;;;;;;;4939088;28;20013;-70
2022/02/12 12:00:30;;;;;;;;;;;;;;;;;;4926026;28;20693;-67
2022/02/12 12:02:59;;;;;;;;;;;;;;;;;;4943233;28;19917;-68
2022/02/12 12:05:26;;;;;;;;;;;;;;;;;;4942732;28;19958;-68
2022/02/12 12:07:53;;;;;;;;;;;;;;;;;;4941862;28;19917;-64
2022/02/12 12:10:19;;;;;;;;;;;;;;;;;;4928730;28;19993;-64
2022/02/12 12:12:45;;;;;;;;;;;;;;;;;;4924936;28;19972;-64
2022/02/12 12:15:12;;;;;;;;;;;;;;;;;;4944209;28;19914;-64
2022/02/12 12:17:39;;;;;;;;;;;;;;;;;;4943934;28;19954;-64
2022/02/12 12:20:07;;;;;;;;;;;;;;;;;;4942112;28;19925;-63
2022/02/12 12:22:33;;;;;;;;;;;;;;;;;;4944766;28;19910;-65
2022/02/12 12:24:59;;;;;;;;;;;;;;;;;;4941075;28;19984;-64
2022/02/12 12:27:25;;;;;;;;;;;;;;;;;;4946193;28;19922;-64
2022/02/12 12:32:36;;;;;;;;;;;;;;;;;;4943535;28;19917;-64
2022/02/12 12:35:06;;;;;;;;;;;;;;;;;;4938861;28;19918;-64
2022/02/12 12:37:34;;;;;;;;;;;;;;;;;;4935106;28;19928;-64
2022/02/12 12:40:02;;;;;;;;;;;;;;;;;;4922971;28;19997;-65
2022/02/12 12:42:29;;;;;;;;;;;;;;;;;;4926365;28;19918;-64
2022/02/12 12:44:57;;;;;;;;;;;;;;;;;;4919705;28;20024;-65
2022/02/12 12:47:25;;;;;;;;;;;;;;;;;;4925547;28;20330;-64
2022/02/12 12:49:53;;;;;;;;;;;;;;;;;;4923103;28;19981;-64
2022/02/12 12:52:23;;;;;;;;;;;;;;;;;;4925369;28;19936;-64
2022/02/12 12:54:50;;;;;;;;;;;;;;;;;;4925076;28;19921;-64
2022/02/12 12:57:16;;;;;;;;;;;;;;;;;;4924167;28;19926;-64
2022/02/12 12:59:43;;;;;;;;;;;;;;;;;;4904693;28;20556;-65
2022/02/12 13:02:10;;;;;;;;;;;;;;;;;;4927833;28;20057;-64
2022/02/12 13:04:38;;;;;;;;;;;;;;;;;;4921653;28;20650;-64
2022/02/12 13:07:05;;;;;;;;;;;;;;;;;;4922745;28;19920;-64
2022/02/12 13:09:31;;;;;;;;;;;;;;;;;;4925389;28;19919;-64
2022/02/12 13:11:58;;;;;;;;;;;;;;;;;;4920687;28;19914;-64
2022/02/12 13:14:26;;;;;;;;;;;;;;;;;;4923609;28;20186;-64
2022/02/12 13:16:55;;;;;;;;;;;;;;;;;;4908167;28;19946;-64
2022/02/12 13:19:22;;;;;;;;;;;;;;;;;;4926800;28;19934;-64
2022/02/12 13:21:49;;;;;;;;;;;;;;;;;;4924741;28;19918;-67
2022/02/12 13:24:16;;;;;;;;;;;;;;;;;;4930581;28;19918;-64
2022/02/12 13:26:43;;;;;;;;;;;;;;;;;;4927576;28;19918;-65
2022/02/12 13:29:09;;;;;;;;;;;;;;;;;;4929882;28;19919;-65
2022/02/12 13:31:36;;;;;;;;;;;;;;;;;;4929709;28;19922;-64
2022/02/12 13:34:04;;;;;;;;;;;;;;;;;;4927240;28;19926;-64
2022/02/12 13:36:31;;;;;;;;;;;;;;;;;;4928860;28;19919;-64
2022/02/12 13:38:57;;;;;;;;;;;;;;;;;;4926314;28;20037;-65
2022/02/12 13:41:23;;;;;;;;;;;;;;;;;;4927726;28;19914;-64
2022/02/12 13:43:51;;;;;;;;;;;;;;;;;;4923752;28;19918;-64
2022/02/12 13:46:17;;;;;;;;;;;;;;;;;;4929102;28;19956;-64
2022/02/12 13:48:44;;;;;;;;;;;;;;;;;;4922267;28;20322;-65
2022/02/12 13:51:11;;;;;;;;;;;;;;;;;;4927078;28;20178;-64
2022/02/12 13:53:39;;;;;;;;;;;;;;;;;;4927581;28;19915;-61
2022/02/12 13:56:06;;;;;;;;;;;;;;;;;;4928787;28;19973;-62
2022/02/12 13:58:37;;;;;;;;;;;;;;;;;;4928366;28;19997;-61
2022/02/12 14:01:04;;;;;;;;;;;;;;;;;;4924777;28;19927;-61
2022/02/12 14:03:30;;;;;;;;;;;;;;;;;;4930691;28;20033;-61
2022/02/12 14:05:57;;;;;;;;;;;;;;;;;;4923661;28;19948;-62
2022/02/12 14:08:24;;;;;;;;;;;;;;;;;;4930599;28;20530;-62
2022/02/12 14:10:51;;;;;;;;;;;;;;;;;;4923062;28;20105;-62
2022/02/12 14:13:18;;;;;;;;;;;;;;;;;;4926818;28;19914;-62
2022/02/12 14:15:45;;;;;;;;;;;;;;;;;;4926076;28;20001;-62
2022/02/12 14:18:11;;;;;;;;;;;;;;;;;;4924298;28;20351;-62
2022/02/12 14:20:37;;;;;;;;;;;;;;;;;;4906879;28;19918;-62
2022/02/12 14:23:06;;;;;;;;;;;;;;;;;;4925121;28;19920;-62
2022/02/12 14:25:34;;;;;;;;;;;;;;;;;;4922842;28;20009;-62
2022/02/12 14:28:02;;;;;;;;;;;;;;;;;;4917534;28;19961;-62
2022/02/12 14:30:29;;;;;;;;;;;;;;;;;;4926335;28;19914;-62
2022/02/12 14:32:56;;;;;;;;;;;;;;;;;;4923382;28;19973;-62
2022/02/12 14:35:22;;;;;;;;;;;;;;;;;;4923695;28;20562;-62
2022/02/12 14:37:48;;;;;;;;;;;;;;;;;;4921050;28;19926;-62
2022/02/12 14:40:18;;;;;;;;;;;;;;;;;;4925715;28;20388;-62
2022/02/12 14:42:44;;;;;;;;;;;;;;;;;;4916090;28;19921;-62
2022/02/12 14:45:10;;;;;;;;;;;;;;;;;;4927087;28;19980;-62
2022/02/12 14:47:36;;;;;;;;;;;;;;;;;;4926378;28;19950;-62
2022/02/12 14:50:02;;;;;;;;;;;;;;;;;;4915998;28;19922;-62
2022/02/12 14:52:29;;;;;;;;;;;;;;;;;;4921600;28;20633;-62
2022/02/12 14:54:57;;;;;;;;;;;;;;;;;;4918652;28;19951;-62
2022/02/12 14:57:24;;;;;;;;;;;;;;;;;;4908670;29;19922;-62
2022/02/12 14:59:51;;;;;;;;;;;;;;;;;;4919240;28;20045;-62
2022/02/12 15:02:20;;;;;;;;;;;;;;;;;;4924471;28;19910;-62
2022/02/12 15:04:48;;;;;;;;;;;;;;;;;;4911978;28;19922;-62
2022/02/12 15:07:15;;;;;;;;;;;;;;;;;;4925803;28;19976;-62
2022/02/12 15:09:46;;;;;;;;;;;;;;;;;;4922742;28;19915;-62
2022/02/12 15:12:13;;;;;;;;;;;;;;;;;;4922472;28;19911;-61
2022/02/12 15:14:40;;;;;;;;;;;;;;;;;;4909386;28;21821;-61
2022/02/12 15:17:07;;;;;;;;;;;;;;;;;;4921038;28;19937;-62
2022/02/12 15:19:35;;;;;;;;;;;;;;;;;;4919094;28;19918;-62
2022/02/12 15:22:01;;;;;;;;;;;;;;;;;;4918810;28;20004;-62
2022/02/12 15:24:28;;;;;;;;;;;;;;;;;;4923556;28;19929;-62
2022/02/12 15:26:55;;;;;;;;;;;;;;;;;;4918360;28;20303;-62
2022/02/12 15:29:21;;;;;;;;;;;;;;;;;;4926903;28;19918;-62
2022/02/12 15:31:48;;;;;;;;;;;;;;;;;;4922246;28;20009;-62
2022/02/12 15:34:14;;;;;;;;;;;;;;;;;;4923744;28;19987;-62
2022/02/12 15:36:41;;;;;;;;;;;;;;;;;;4921955;28;19910;-62
2022/02/12 15:39:09;;;;;;;;;;;;;;;;;;4904981;28;19934;-62
2022/02/12 15:41:37;;;;;;;;;;;;;;;;;;4899633;28;20084;-62
2022/02/12 15:44:05;;;;;;;;;;;;;;;;;;4916305;28;20013;-61
2022/02/12 15:46:31;;;;;;;;;;;;;;;;;;4919967;28;20271;-62
2022/02/12 15:48:58;;;;;;;;;;;;;;;;;;4915774;28;20660;-62
2022/02/12 15:51:25;;;;;;;;;;;;;;;;;;4920202;28;20009;-62
2022/02/12 15:53:52;;;;;;;;;;;;;;;;;;4905648;28;20805;-62
2022/02/12 15:56:19;;;;;;;;;;;;;;;;;;4920489;28;20365;-62
2022/02/12 15:58:47;;;;;;;;;;;;;;;;;;4922600;28;19941;-63
2022/02/12 16:01:16;;;;;;;;;;;;;;;;;;4923891;28;20717;-62
2022/02/12 16:03:43;;;;;;;;;;;;;;;;;;4921028;28;20213;-62
2022/02/12 16:06:09;;;;;;;;;;;;;;;;;;4922465;28;20014;-62
2022/02/12 16:08:36;;;;;;;;;;;;;;;;;;4919481;28;19917;-62
2022/02/12 16:11:02;;;;;;;;;;;;;;;;;;4918364;28;19946;-62
2022/02/12 16:13:28;;;;;;;;;;;;;;;;;;4920794;28;19953;-61
2022/02/12 16:15:54;;;;;;;;;;;;;;;;;;4921394;28;19914;-62
2022/02/12 16:18:21;;;;;;;;;;;;;;;;;;4916680;28;19918;-62
2022/02/12 16:20:47;;;;;;;;;;;;;;;;;;4918847;28;19965;-62
2022/02/12 16:23:14;;;;;;;;;;;;;;;;;;4916507;28;20447;-63
2022/02/12 16:25:41;;;;;;;;;;;;;;;;;;4922869;28;20289;-61
2022/02/12 16:28:10;;;;;;;;;;;;;;;;;;4924511;28;19925;-61
2022/02/12 16:30:40;;;;;;;;;;;;;;;;;;4918277;28;20473;-61
2022/02/12 16:33:06;;;;;;;;;;;;;;;;;;4919493;28;19977;-61
2022/02/12 16:35:33;;;;;;;;;;;;;;;;;;4925053;28;19917;-61
2022/02/12 16:38:01;;;;;;;;;;;;;;;;;;4923314;28;19934;-61
2022/02/12 16:40:28;;;;;;;;;;;;;;;;;;4926081;28;19919;-61
2022/02/12 16:42:54;;;;;;;;;;;;;;;;;;4917214;28;20017;-63
2022/02/12 16:45:20;;;;;;;;;;;;;;;;;;4926497;28;20013;-62
2022/02/12 16:47:47;;;;;;;;;;;;;;;;;;4921571;28;19964;-62
2022/02/12 16:50:15;;;;;;;;;;;;;;;;;;4920543;28;19915;-62
2022/02/12 16:52:43;;;;;;;;;;;;;;;;;;4932255;28;20725;-63
2022/02/12 16:55:09;;;;;;;;;;;;;;;;;;4909625;29;19914;-62